Time;durP1;ratioP1;P1;durP2;ratioP2;P2;SDS_P1;SDS_P2;PMS_P1;PMS_P2;Temp;Humidity;BMP_temperature;BMP_pressure;BME280_temperature;BME280_humidity;BME280_pressure;Samples;Min_cycle;Max_cycle;Signal;HPM_P1;HPM_P2
2022/02/14 00:00:39;;;;;;;;;;;9.80;86.50;;;8.42;75.19;99258.13;5150593;27;19934;-83
2022/02/14 00:03:10;;;;;;;;;;;9.80;86.60;;;8.42;75.12;99258.13;5150388;27;19927;-83
2022/02/14 00:05:37;;;;;;;;;;;9.80;86.70;;;8.46;75.28;99269.41;5150922;27;19972;-83
2022/02/14 00:08:04;;;;;;;;;;;9.80;86.40;;;8.48;75.14;99234.78;5118709;27;19930;-83
2022/02/14 00:10:32;;;;;;;;;;;9.80;86.60;;;8.49;74.61;99236.44;5121655;28;20442;-83
2022/02/14 00:13:00;;;;;;;;;;;9.90;86.60;;;8.51;74.74;99234.38;5123391;28;20336;-83
2022/02/14 00:15:27;;;;;;;;;;;9.90;86.60;;;8.54;74.43;99225.84;5109407;28;19967;-83
2022/02/14 00:17:57;;;;;;;;;;;9.90;86.60;;;8.56;75.02;99230.00;5124013;28;19934;-83
2022/02/14 00:20:24;;;;;;;;;;;9.90;86.60;;;8.55;74.71;99224.81;5129684;28;19924;-83
2022/02/14 00:22:51;;;;;;;;;;;9.90;86.70;;;8.55;75.38;99219.38;5120402;28;20371;-83
2022/02/14 00:25:19;;;;;;;;;;;9.90;86.60;;;8.60;75.36;99212.31;5119110;28;19928;-83
2022/02/14 00:27:46;;;;;;;;;;;9.90;86.60;;;8.61;75.35;99213.97;5116251;28;20288;-83
2022/02/14 00:30:15;;;;;;;;;;;10.00;86.60;;;8.59;75.37;99213.34;5120030;28;19923;-83
2022/02/14 00:32:42;;;;;;;;;;;9.90;87.10;;;8.57;75.73;99204.56;5117302;27;20010;-84
2022/02/14 00:35:13;;;;;;;;;;;9.90;86.90;;;8.59;75.62;99198.94;5109506;28;19963;-84
2022/02/14 00:37:40;;;;;;;;;;;9.90;87.10;;;8.63;75.69;99200.22;5114653;27;19928;-83
2022/02/14 00:40:08;;;;;;;;;;;10.00;86.90;;;8.61;75.50;99181.44;5133407;27;19927;-84
2022/02/14 00:42:35;;;;;;;;;;;9.90;86.90;;;8.61;75.48;99192.28;5122573;27;19927;-83
2022/02/14 00:45:03;;;;;;;;;;;10.00;87.00;;;8.61;75.52;99197.69;5112973;27;19928;-83
2022/02/14 00:47:31;;;;;;;;;;;10.00;86.70;;;8.58;75.60;99179.13;5113339;27;20314;-83
2022/02/14 00:49:58;;;;;;;;;;;9.90;87.10;;;8.59;75.53;99194.34;5133180;27;19933;-83
2022/02/14 00:52:26;;;;;;;;;;;9.90;87.40;;;8.58;75.31;99179.13;5124053;27;20384;-83
2022/02/14 00:54:57;;;;;;;;;;;9.90;87.10;;;8.62;75.53;99174.13;5112758;27;19973;-83
2022/02/14 00:57:24;;;;;;;;;;;9.90;87.40;;;8.61;75.67;99176.00;5106393;28;19928;-83
2022/02/14 00:59:54;;;;;;;;;;;9.90;87.30;;;8.60;75.95;99179.78;5112306;28;19927;-84
2022/02/14 01:02:21;;;;;;;;;;;9.90;87.30;;;8.57;76.08;99180.16;5120555;27;20464;-83
2022/02/14 01:04:50;;;;;;;;;;;10.00;87.60;;;8.56;75.67;99173.06;5132582;27;19932;-83
2022/02/14 01:07:17;;;;;;;;;;;9.90;87.50;;;8.55;75.85;99173.28;5125928;27;20042;-83
2022/02/14 01:09:44;;;;;;;;;;;9.90;87.80;;;8.55;76.18;99174.13;5131205;27;19923;-83
2022/02/14 01:12:11;;;;;;;;;;;9.90;87.80;;;8.54;75.67;99166.19;5125837;27;19927;-83
2022/02/14 01:14:38;;;;;;;;;;;9.90;87.50;;;8.55;76.13;99168.69;5126891;27;20024;-84
2022/02/14 01:17:06;;;;;;;;;;;10.00;87.70;;;8.55;75.88;99171.41;5125455;27;20472;-83
2022/02/14 01:19:33;;;;;;;;;;;9.90;87.50;;;8.53;76.86;99157.22;5132407;27;19923;-83
2022/02/14 01:22:01;;;;;;;;;;;9.90;87.80;;;8.52;76.26;99166.38;5132341;27;20015;-83
2022/02/14 01:24:28;;;;;;;;;;;9.90;87.70;;;8.53;76.28;99146.38;5119567;27;19954;-84
2022/02/14 01:26:56;;;;;;;;;;;9.90;87.60;;;8.54;76.54;99158.03;5115040;27;19928;-83
2022/02/14 01:29:23;;;;;;;;;;;9.90;87.90;;;8.49;76.18;99134.28;5132431;27;19931;-83
2022/02/14 01:31:50;;;;;;;;;;;9.90;88.00;;;8.49;76.55;99142.41;5130125;27;20010;-84
2022/02/14 01:34:17;;;;;;;;;;;9.90;88.00;;;8.49;76.89;99142.41;5123702;27;19988;-83
2022/02/14 01:36:45;;;;;;;;;;;9.90;88.00;;;8.50;76.96;99151.38;5131269;27;19976;-84
2022/02/14 01:39:13;;;;;;;;;;;9.90;87.90;;;8.49;76.34;99145.13;5124451;27;19974;-83
2022/02/14 01:41:40;;;;;;;;;;;9.90;87.90;;;8.50;76.66;99133.22;5112095;28;19987;-84
2022/02/14 01:44:11;;;;;;;;;;;9.90;88.20;;;8.49;76.99;99123.44;5112515;27;20764;-83
2022/02/14 01:46:38;;;;;;;;;;;9.80;87.90;;;8.50;76.35;99113.41;5113333;27;20403;-84
2022/02/14 01:49:05;;;;;;;;;;;9.90;88.10;;;8.50;76.83;99106.09;5118839;27;19956;-84
2022/02/14 01:51:32;;;;;;;;;;;9.90;88.10;;;8.50;77.09;99110.69;5132619;27;19928;-84
2022/02/14 01:54:01;;;;;;;;;;;10.00;88.40;;;8.49;76.85;99109.88;5113775;27;19934;-83
2022/02/14 01:56:29;;;;;;;;;;;9.90;88.20;;;8.48;77.15;99107.34;5111854;28;19928;-84
2022/02/14 01:58:56;;;;;;;;;;;9.90;88.40;;;8.43;77.23;99102.53;5116806;27;20006;-84
2022/02/14 02:01:23;;;;;;;;;;;9.80;89.00;;;8.41;77.33;99088.31;5111947;28;20471;-83
2022/02/14 02:03:51;;;;;;;;;;;9.80;88.90;;;8.41;77.27;99088.31;5127936;27;19996;-84
2022/02/14 02:06:20;;;;;;;;;;;9.80;88.60;;;8.45;77.24;99075.22;5124008;27;19934;-84
2022/02/14 02:08:47;;;;;;;;;;;9.80;88.40;;;8.46;77.00;99080.44;5119785;27;19941;-84
2022/02/14 02:14:00;;;;;;;;;;;9.80;88.80;;;8.46;77.41;99075.03;5129864;27;20371;-84
2022/02/14 02:16:27;;;;;;;;;;;9.80;88.60;;;8.47;77.47;99065.84;5123687;27;19984;-83
2022/02/14 02:18:54;;;;;;;;;;;9.90;88.70;;;8.45;77.62;99058.97;5131535;27;20407;-83
2022/02/14 02:21:21;;;;;;;;;;;9.80;88.80;;;8.48;77.12;99058.56;5123118;27;19932;-83
2022/02/14 02:23:49;;;;;;;;;;;9.80;88.70;;;8.46;77.08;99047.91;5120916;27;20010;-83
2022/02/14 02:26:17;;;;;;;;;;;9.80;88.60;;;8.45;77.76;99046.22;5123625;27;19928;-83
2022/02/14 02:28:44;;;;;;;;;;;9.80;88.70;;;8.43;77.28;99048.31;5110865;28;20022;-83
2022/02/14 02:31:11;;;;;;;;;;;9.80;88.80;;;8.43;77.48;99037.47;5117708;27;19950;-84
2022/02/14 02:33:38;;;;;;;;;;;9.80;88.60;;;8.47;77.31;99036.00;5129705;27;19984;-84
2022/02/14 02:36:06;;;;;;;;;;;9.80;88.50;;;8.49;77.27;99039.38;5125049;27;20032;-83
2022/02/14 02:38:34;;;;;;;;;;;9.90;88.60;;;8.46;77.24;99036.25;5110771;28;19928;-83
2022/02/14 02:41:01;;;;;;;;;;;9.80;88.80;;;8.44;78.03;99041.88;5115734;27;20391;-84
2022/02/14 02:43:30;;;;;;;;;;;9.80;88.80;;;8.46;77.73;99045.19;5130756;27;19927;-83
2022/02/14 02:45:57;;;;;;;;;;;9.80;88.70;;;8.44;77.69;99039.16;5126296;27;20014;-83
2022/02/14 02:48:24;;;;;;;;;;;9.80;88.80;;;8.45;77.73;99023.72;5110346;28;19928;-83
2022/02/14 02:51:03;;;;;;;;;;;9.80;88.70;;;8.47;77.57;99022.44;5113732;27;20012;-83
2022/02/14 02:53:31;;;;;;;;;;;9.80;88.50;;;8.48;77.29;99012.47;5120743;27;20383;-83
2022/02/14 02:55:58;;;;;;;;;;;9.90;88.40;;;8.48;77.21;99001.63;5110501;27;20844;-83
2022/02/14 02:58:26;;;;;;;;;;;9.90;88.70;;;8.47;77.60;99010.78;5110854;27;20010;-83
2022/02/14 03:00:54;;;;;;;;;;;9.80;88.60;;;8.47;77.27;99010.78;5111623;27;19928;-84
2022/02/14 03:03:21;;;;;;;;;;;9.90;88.60;;;8.49;77.14;98993.28;5110801;28;20026;-84
2022/02/14 03:05:48;;;;;;;;;;;9.90;88.40;;;8.54;76.95;98995.34;5113355;27;19953;-84
2022/02/14 03:08:15;;;;;;;;;;;9.90;88.40;;;8.56;76.67;98985.13;5130777;27;19934;-84
2022/02/14 03:10:42;;;;;;;;;;;9.90;88.60;;;8.56;77.15;98982.41;5127099;27;19928;-83
2022/02/14 03:13:09;;;;;;;;;;;9.90;88.50;;;8.58;77.56;98969.47;5122989;27;19953;-84
2022/02/14 03:15:36;;;;;;;;;;;9.90;88.40;;;8.59;76.81;98961.16;5128125;27;19975;-84
2022/02/14 03:18:05;;;;;;;;;;;9.90;88.10;;;8.63;76.83;98955.31;5123425;27;20484;-84
2022/02/14 03:20:32;;;;;;;;;;;10.00;88.00;;;8.64;76.93;98956.97;5128377;27;20361;-84
2022/02/14 03:22:59;;;;;;;;;;;10.00;88.20;;;8.61;76.77;98978.03;5128028;27;20343;-84
2022/02/14 03:25:26;;;;;;;;;;;9.90;88.30;;;8.61;77.01;98969.91;5126984;27;19923;-84
2022/02/14 03:27:55;;;;;;;;;;;9.90;88.20;;;8.64;76.71;98962.38;5130563;27;19992;-84
2022/02/14 03:30:22;;;;;;;;;;;10.00;88.20;;;8.63;76.83;98961.56;5129673;27;19927;-84
2022/02/14 03:32:49;;;;;;;;;;;10.00;88.30;;;8.64;77.05;98954.25;5110303;28;19940;-84
2022/02/14 03:35:18;;;;;;;;;;;10.00;88.20;;;8.61;76.93;98955.53;5116188;27;20006;-84
2022/02/14 03:37:45;;;;;;;;;;;9.90;88.20;;;8.60;77.11;98951.97;5110018;28;20237;-84
2022/02/14 03:40:12;;;;;;;;;;;9.90;88.20;;;8.58;76.88;98947.78;5124343;27;20022;-84
2022/02/14 03:42:39;;;;;;;;;;;9.90;88.30;;;8.54;77.63;98958.22;5130009;27;19933;-84
2022/02/14 03:45:06;;;;;;;;;;;9.90;88.30;;;8.58;77.14;98962.19;5127940;27;20516;-84
2022/02/14 03:47:34;;;;;;;;;;;9.90;88.10;;;8.59;76.56;98960.31;5114628;28;19928;-84
2022/02/14 03:50:01;;;;;;;;;;;9.90;88.20;;;8.55;77.08;98943.63;5115867;28;19972;-84
2022/02/14 03:52:29;;;;;;;;;;;9.90;88.40;;;8.54;77.04;98960.94;5109805;28;19932;-83
2022/02/14 03:54:56;;;;;;;;;;;9.90;88.50;;;8.58;77.61;98936.94;5120110;28;20002;-83
2022/02/14 03:57:23;;;;;;;;;;;9.90;88.50;;;8.63;76.97;98941.75;5130095;28;19931;-83
2022/02/14 03:59:50;;;;;;;;;;;9.90;88.40;;;8.67;76.75;98943.00;5118943;28;20018;-84
2022/02/14 04:02:17;;;;;;;;;;;10.00;88.40;;;8.69;76.78;98943.63;5108551;28;19932;-84
2022/02/14 04:04:44;;;;;;;;;;;10.00;88.30;;;8.74;76.95;98950.06;5118227;28;20387;-83
2022/02/14 04:07:11;;;;;;;;;;;10.00;88.20;;;8.77;77.07;98949.63;5130115;28;19927;-83
2022/02/14 04:09:40;;;;;;;;;;;10.10;88.30;;;8.82;76.61;98949.03;5122554;28;19928;-83
2022/02/14 04:12:07;;;;;;;;;;;10.10;87.90;;;8.84;76.39;98941.50;5123124;27;19946;-84
2022/02/14 04:14:35;;;;;;;;;;;10.10;87.80;;;8.84;76.49;98936.06;5113594;28;19928;-84
2022/02/14 04:17:02;;;;;;;;;;;10.10;88.10;;;8.83;77.05;98949.84;5113520;28;19988;-84
2022/02/14 04:19:29;;;;;;;;;;;10.10;88.20;;;8.84;76.40;98968.63;5120362;27;20298;-84
2022/02/14 04:21:56;;;;;;;;;;;10.10;88.10;;;8.89;76.16;98955.28;5132930;27;19927;-84
2022/02/14 04:24:23;;;;;;;;;;;10.10;87.60;;;8.91;76.50;98953.19;5127208;27;20404;-83
2022/02/14 04:26:51;;;;;;;;;;;10.20;87.80;;;8.91;76.44;98942.31;5114811;27;19928;-83
2022/02/14 04:29:19;;;;;;;;;;;10.20;87.90;;;8.90;76.16;98940.63;5128655;27;19928;-83
2022/02/14 04:31:46;;;;;;;;;;;10.20;87.90;;;8.93;76.55;98940.22;5131393;27;20017;-84
2022/02/14 04:34:14;;;;;;;;;;;10.20;87.90;;;8.92;76.17;98921.44;5128888;27;19924;-83
2022/02/14 04:36:41;;;;;;;;;;;10.20;87.60;;;8.94;76.26;98913.91;5112803;28;20298;-83
2022/02/14 04:39:08;;;;;;;;;;;10.20;87.70;;;8.93;76.62;98917.66;5132342;27;20021;-88
2022/02/14 04:41:35;;;;;;;;;;;10.20;88.10;;;8.93;76.62;98923.94;5134065;27;19967;-88
2022/02/14 04:44:04;;;;;;;;;;;10.20;87.90;;;8.95;76.24;98930.00;5128101;27;19953;-85
2022/02/14 04:46:31;;;;;;;;;;;10.20;87.90;;;8.95;76.25;98921.84;5133648;27;19935;-84
2022/02/14 04:48:59;;;;;;;;;;;10.20;87.90;;;8.97;76.62;98946.06;5117782;27;19935;-85
2022/02/14 04:51:27;;;;;;;;;;;10.30;88.10;;;9.02;76.39;98934.56;5111718;28;19959;-85
2022/02/14 04:53:54;;;;;;;;;;;10.30;87.60;;;9.02;76.09;98926.41;5126491;27;19980;-84
2022/02/14 04:56:21;;;;;;;;;;;10.30;87.60;;;9.03;76.48;98933.53;5133569;27;19934;-84
2022/02/14 04:58:49;;;;;;;;;;;10.30;87.80;;;9.02;76.60;98921.00;5119590;27;20034;-84
2022/02/14 05:01:17;;;;;;;;;;;10.30;88.00;;;9.00;76.05;98932.91;5112778;28;19927;-86
2022/02/14 05:03:44;;;;;;;;;;;10.30;87.90;;;9.02;76.37;98926.41;5112883;27;19972;-85
2022/02/14 05:06:11;;;;;;;;;;;10.30;88.30;;;8.99;76.42;98923.09;5112498;28;19980;-84
2022/02/14 05:08:40;;;;;;;;;;;10.30;88.00;;;9.00;76.63;98929.34;5119273;27;19938;-84
2022/02/14 05:11:07;;;;;;;;;;;10.30;87.90;;;9.02;76.60;98931.84;5128516;27;19930;-85
2022/02/14 05:13:35;;;;;;;;;;;10.30;88.00;;;9.00;76.64;98930.19;5123172;27;19961;-84
2022/02/14 05:16:02;;;;;;;;;;;10.30;87.80;;;9.03;76.47;98936.25;5110957;28;20077;-83
2022/02/14 05:18:30;;;;;;;;;;;10.30;88.10;;;9.03;76.62;98933.53;5113614;27;20294;-85
2022/02/14 05:20:57;;;;;;;;;;;10.30;88.20;;;9.02;76.47;98938.09;5112543;28;20014;-84
2022/02/14 05:23:24;;;;;;;;;;;10.30;88.40;;;9.03;76.55;98934.34;5119826;27;20004;-85
2022/02/14 05:25:51;;;;;;;;;;;10.30;88.50;;;9.00;76.73;98935.63;5111408;28;19971;-85
2022/02/14 05:28:18;;;;;;;;;;;10.30;88.50;;;9.00;76.71;98932.91;5114835;27;19931;-85
2022/02/14 05:30:45;;;;;;;;;;;10.30;88.20;;;9.04;76.74;98927.03;5132782;27;19984;-86
2022/02/14 05:33:15;;;;;;;;;;;10.30;88.40;;;9.03;76.46;98938.94;5127389;27;20018;-85
2022/02/14 05:35:43;;;;;;;;;;;10.30;88.10;;;9.03;76.63;98928.09;5110741;28;20359;-85
2022/02/14 05:38:10;;;;;;;;;;;10.40;88.40;;;9.00;76.37;98927.47;5115976;27;20002;-85
2022/02/14 05:40:37;;;;;;;;;;;10.30;88.20;;;8.99;77.05;98917.66;5131090;27;19963;-86
2022/02/14 05:43:04;;;;;;;;;;;10.30;88.70;;;9.02;76.91;98910.13;5129113;27;20018;-85
2022/02/14 05:45:31;;;;;;;;;;;10.20;88.50;;;8.98;77.13;98888.03;5115473;27;19927;-83
2022/02/14 05:47:58;;;;;;;;;;;10.20;88.90;;;8.97;77.17;98900.75;5123527;27;19930;-85
2022/02/14 05:50:25;;;;;;;;;;;10.20;89.00;;;8.97;77.10;98922.47;5131721;27;20029;-85
2022/02/14 05:55:22;;;;;;;;;;;10.20;88.80;;;8.98;77.43;98915.97;5048971;28;20190;-81
2022/02/14 05:57:49;;;;;;;;;;;10.20;89.00;;;8.96;77.26;98923.50;5050936;28;19935;-81
2022/02/14 06:00:17;;;;;;;;;;;10.20;89.20;;;8.95;77.63;98935.41;5050587;28;20022;-81
2022/02/14 06:02:44;;;;;;;;;;;10.20;89.20;;;8.95;78.11;98902.84;5055957;28;19981;-80
2022/02/14 06:05:11;;;;;;;;;;;10.20;89.60;;;8.94;78.00;98912.03;5050779;28;19928;-81
2022/02/14 06:07:38;;;;;;;;;;;10.20;89.50;;;8.94;77.91;98909.31;5027303;28;20052;-81
2022/02/14 06:10:06;;;;;;;;;;;10.20;89.60;;;8.94;78.14;98912.03;5030976;28;19960;-80
2022/02/14 06:12:34;;;;;;;;;;;10.20;89.80;;;8.95;77.95;98921.03;5035383;28;19975;-80
2022/02/14 06:15:02;;;;;;;;;;;10.20;89.70;;;8.95;78.11;98919.13;5031217;28;20028;-80
2022/02/14 06:17:29;;;;;;;;;;;10.20;89.60;;;8.93;78.90;98910.38;5030347;28;19964;-80
2022/02/14 06:19:56;;;;;;;;;;;10.30;89.90;;;8.94;78.56;98927.50;5024995;28;19928;-79
2022/02/14 06:22:25;;;;;;;;;;;10.20;89.90;;;8.95;78.56;98921.03;5029768;28;19925;-79
2022/02/14 06:24:52;;;;;;;;;;;10.20;89.70;;;8.95;78.79;98919.13;5015944;28;19929;-79
2022/02/14 06:27:19;;;;;;;;;;;10.20;89.70;;;8.91;78.85;98923.34;5027124;28;19990;-80
2022/02/14 06:29:48;;;;;;;;;;;10.20;89.90;;;8.95;78.55;98921.84;5025209;28;19929;-79
2022/02/14 06:32:16;;;;;;;;;;;10.20;90.00;;;8.97;79.00;98929.78;5030733;28;19994;-80
2022/02/14 06:34:43;;;;;;;;;;;10.20;90.30;;;8.95;79.03;98924.56;5029413;28;19925;-80
2022/02/14 06:37:11;;;;;;;;;;;10.20;90.50;;;8.96;79.04;98909.13;5028738;28;19929;-79
2022/02/14 06:39:38;;;;;;;;;;;10.20;90.60;;;9.00;79.65;98923.91;5042795;28;19929;-80
2022/02/14 06:42:05;;;;;;;;;;;10.20;90.60;;;9.01;79.47;98922.88;5043940;28;20449;-79
2022/02/14 06:44:32;;;;;;;;;;;10.30;90.70;;;9.02;79.55;98929.13;5031473;28;19933;-80
2022/02/14 06:47:01;;;;;;;;;;;10.30;90.60;;;9.03;79.36;98922.66;5041552;28;19960;-79
2022/02/14 06:49:28;;;;;;;;;;;10.30;90.70;;;9.04;79.87;98924.31;5039999;28;20470;-79
2022/02/14 06:51:56;;;;;;;;;;;10.30;90.90;;;9.05;80.25;98923.28;5026818;28;19933;-79
2022/02/14 06:54:23;;;;;;;;;;;10.30;91.10;;;9.07;79.96;98911.16;5038203;28;19929;-79
2022/02/14 06:56:50;;;;;;;;;;;10.30;91.10;;;9.09;80.34;98916.38;5030709;28;19975;-79
2022/02/14 06:59:19;;;;;;;;;;;10.30;91.10;;;9.09;80.36;98916.38;5047128;28;20039;-80
2022/02/14 07:01:46;;;;;;;;;;;10.40;91.10;;;9.12;80.54;98915.94;5025766;28;20032;-80
2022/02/14 07:04:14;;;;;;;;;;;10.40;91.20;;;9.12;80.36;98910.50;5032819;28;20403;-80
2022/02/14 07:06:41;;;;;;;;;;;10.40;91.40;;;9.11;80.77;98908.84;5031170;28;19929;-83
2022/02/14 07:09:08;;;;;;;;;;;10.40;91.30;;;9.12;81.13;98915.94;5028436;28;20010;-80
2022/02/14 07:11:36;;;;;;;;;;;10.40;91.40;;;9.11;81.34;98925.13;5030880;28;19933;-80
2022/02/14 07:14:04;;;;;;;;;;;10.40;91.60;;;9.14;81.13;98919.28;5028834;28;20276;-81
2022/02/14 07:16:32;;;;;;;;;;;10.40;91.80;;;9.17;81.09;98925.09;5019741;28;19929;-81
2022/02/14 07:18:59;;;;;;;;;;;10.40;91.80;;;9.22;81.17;98919.03;5038178;28;19929;-80
2022/02/14 07:21:27;;;;;;;;;;;10.60;92.00;;;9.21;81.33;98914.66;5036853;28;19941;-81
2022/02/14 07:23:54;;;;;;;;;;;10.50;92.00;;;9.23;82.09;98917.97;5026577;28;20019;-81
2022/02/14 07:26:21;;;;;;;;;;;10.50;92.20;;;9.25;81.89;98915.88;5026560;28;19933;-81
2022/02/14 07:28:49;;;;;;;;;;;10.50;92.40;;;9.27;82.11;98921.94;5028674;28;19925;-81
2022/02/14 07:31:16;;;;;;;;;;;10.50;92.30;;;9.28;82.16;98914.63;5037137;28;19929;-81
2022/02/14 07:33:43;;;;;;;;;;;10.50;92.40;;;9.30;82.59;98917.97;5036679;28;19935;-81
2022/02/14 07:36:10;;;;;;;;;;;10.50;92.40;;;9.31;82.38;98917.75;5020676;28;19929;-81
2022/02/14 07:38:39;;;;;;;;;;;10.60;92.40;;;9.35;82.79;98920.88;5026311;28;19929;-81
2022/02/14 07:41:06;;;;;;;;;;;10.60;92.80;;;9.38;82.50;98928.56;5031340;28;19935;-82
2022/02/14 07:43:33;;;;;;;;;;;10.60;92.60;;;9.39;82.79;98922.09;5023060;28;20015;-82
2022/02/14 07:46:00;;;;;;;;;;;10.70;93.00;;;9.41;83.28;98930.88;5020349;28;20020;-82
2022/02/14 07:48:27;;;;;;;;;;;10.60;93.00;;;9.42;83.29;98916.22;5022442;28;19976;-81
2022/02/14 07:51:00;;;;;;;;;;;10.70;93.10;;;9.41;83.24;98920.00;5028700;28;20026;-82
2022/02/14 07:53:27;;;;;;;;;;;10.70;93.30;;;9.44;83.26;98918.72;5027417;28;20015;-82
2022/02/14 07:55:55;;;;;;;;;;;10.70;93.40;;;9.48;83.01;98925.38;5020734;28;19925;-82
2022/02/14 07:58:22;;;;;;;;;;;10.70;93.50;;;9.48;83.46;98933.53;5030617;28;19981;-82
2022/02/14 08:00:49;;;;;;;;;;;10.70;93.20;;;9.48;83.72;98925.38;5030545;28;19924;-82
2022/02/14 08:03:18;;;;;;;;;;;10.70;93.40;;;9.50;83.98;98928.72;5009069;28;20032;-82
2022/02/14 08:05:45;;;;;;;;;;;10.80;93.60;;;9.49;84.36;98927.88;5028466;28;20458;-81
2022/02/14 08:08:13;;;;;;;;;;;10.80;93.80;;;9.49;84.26;98922.47;5028909;28;20059;-82
2022/02/14 08:10:40;;;;;;;;;;;10.80;93.80;;;9.53;84.39;98928.28;5021528;28;19936;-82
2022/02/14 08:13:09;;;;;;;;;;;10.80;93.80;;;9.54;84.68;98913.69;5009624;28;20602;-82
2022/02/14 08:15:36;;;;;;;;;;;10.80;94.10;;;9.56;84.62;98919.72;5032887;28;19940;-82
2022/02/14 08:18:07;;;;;;;;;;;10.80;94.00;;;9.57;84.98;98921.38;5028540;28;19983;-82
2022/02/14 08:20:34;;;;;;;;;;;10.80;93.90;;;9.59;84.64;98925.56;5028272;28;19965;-82
2022/02/14 08:23:03;;;;;;;;;;;10.90;94.20;;;9.61;85.16;98924.50;5024053;28;19979;-82
2022/02/14 08:25:30;;;;;;;;;;;10.90;94.20;;;9.65;84.90;98920.28;5029935;28;19936;-82
2022/02/14 08:27:58;;;;;;;;;;;11.10;94.40;;;9.67;85.31;98924.47;5026462;28;19939;-82
2022/02/14 08:30:26;;;;;;;;;;;10.90;94.50;;;9.70;85.39;98928.63;5023195;28;19975;-82
2022/02/14 08:32:54;;;;;;;;;;;10.90;94.40;;;9.71;85.22;98930.25;5027086;28;19929;-82
2022/02/14 08:35:21;;;;;;;;;;;11.10;94.40;;;9.74;84.81;98933.38;5026635;28;19968;-82
2022/02/14 08:37:50;;;;;;;;;;;11.00;94.30;;;9.77;85.18;98930.25;5028617;28;19951;-82
2022/02/14 08:40:17;;;;;;;;;;;11.00;94.20;;;9.78;85.63;98940.03;5028895;28;19940;-82
2022/02/14 08:42:44;;;;;;;;;;;11.00;94.40;;;9.79;85.25;98930.84;5027016;28;19936;-82
2022/02/14 08:45:12;;;;;;;;;;;11.10;94.50;;;9.85;85.46;98941.91;5025214;28;20018;-82
2022/02/14 08:47:43;;;;;;;;;;;11.10;94.50;;;9.85;85.25;98926.44;5026084;28;20007;-82
2022/02/14 08:50:11;;;;;;;;;;;11.10;94.70;;;9.90;85.54;98936.63;5026162;28;19929;-82
2022/02/14 08:52:38;;;;;;;;;;;11.10;94.60;;;9.91;85.47;98941.03;5010018;28;20434;-82
2022/02/14 08:55:08;;;;;;;;;;;11.10;94.50;;;9.90;85.12;98939.34;5030517;28;20385;-82
2022/02/14 08:57:35;;;;;;;;;;;11.10;94.60;;;9.90;85.80;98931.19;5020014;28;20031;-82
2022/02/14 09:00:04;;;;;;;;;;;11.20;94.80;;;9.89;86.35;98937.69;5028134;28;19969;-82
2022/02/14 09:02:34;;;;;;;;;;;11.20;94.90;;;9.90;86.20;98942.91;5031229;28;19983;-81
2022/02/14 09:05:02;;;;;;;;;;;11.20;94.80;;;9.92;86.28;98942.69;5029937;28;19929;-81
2022/02/14 09:07:30;;;;;;;;;;;11.20;94.60;;;9.93;85.81;98949.78;5035635;28;20376;-83
2022/02/14 09:09:59;;;;;;;;;;;11.20;94.90;;;9.91;86.21;98952.72;5024089;28;19933;-83
2022/02/14 09:12:26;;;;;;;;;;;11.20;95.10;;;9.95;86.56;98966.69;5028802;28;19929;-82
2022/02/14 09:14:53;;;;;;;;;;;11.20;95.20;;;9.95;87.00;98950.41;5033214;28;19929;-83
2022/02/14 09:17:20;;;;;;;;;;;11.20;95.20;;;9.93;87.19;98960.66;5034811;28;20411;-82
2022/02/14 09:19:47;;;;;;;;;;;11.20;95.20;;;9.94;87.52;98956.91;5010697;28;19979;-82
2022/02/14 09:22:15;;;;;;;;;;;11.20;95.50;;;9.96;87.53;98950.19;5028624;28;19940;-82
2022/02/14 09:24:43;;;;;;;;;;;11.30;95.40;;;10.03;87.03;98954.75;5033967;28;19955;-82
2022/02/14 09:27:11;;;;;;;;;;;11.30;95.30;;;10.03;86.89;98950.13;5028779;28;19925;-82
2022/02/14 09:29:39;;;;;;;;;;;11.30;95.30;;;10.08;87.31;98949.47;5030479;28;19929;-82
2022/02/14 09:32:09;;;;;;;;;;;11.30;95.70;;;10.10;87.67;98961.78;5030158;28;19925;-82
2022/02/14 09:34:36;;;;;;;;;;;11.40;95.70;;;10.10;87.73;98959.06;5035530;28;20027;-82
2022/02/14 09:37:04;;;;;;;;;;;11.40;95.70;;;10.10;87.87;98961.78;5029924;28;19935;-82
2022/02/14 09:39:32;;;;;;;;;;;11.40;95.80;;;10.14;87.51;98956.75;5026874;28;19925;-84
2022/02/14 09:42:00;;;;;;;;;;;11.40;95.90;;;10.14;87.94;98954.03;5025288;28;20673;-84
2022/02/14 09:44:28;;;;;;;;;;;11.40;96.00;;;10.21;88.50;98962.16;5030785;28;19975;-84
2022/02/14 09:46:56;;;;;;;;;;;11.40;96.40;;;10.23;88.39;98957.31;5022269;28;19929;-84
2022/02/14 09:49:23;;;;;;;;;;;11.40;96.20;;;10.27;88.60;98972.13;5027079;28;19925;-84
2022/02/14 09:51:51;;;;;;;;;;;11.50;96.50;;;10.25;88.61;98964.19;5027738;28;19980;-84
2022/02/14 09:54:21;;;;;;;;;;;11.50;96.60;;;10.27;88.28;98969.41;5035144;28;19982;-83
2022/02/14 09:56:50;;;;;;;;;;;11.50;96.30;;;10.26;88.94;98965.88;5027061;28;19999;-84
2022/02/14 09:59:17;;;;;;;;;;;11.50;96.60;;;10.25;88.84;98977.78;5027441;28;19933;-84
2022/02/14 10:01:45;;;;;;;;;;;11.50;96.90;;;10.28;89.52;98971.06;5045806;28;20381;-85
2022/02/14 10:04:12;;;;;;;;;;;11.50;96.90;;;10.26;89.67;98970.47;5031556;28;20288;-84
2022/02/14 10:06:43;;;;;;;;;;;11.50;97.60;;;10.27;90.22;98972.13;5019845;28;19961;-84
2022/02/14 10:09:12;;;;;;;;;;;11.50;98.20;;;10.25;91.31;98993.28;5024715;28;19928;-84
2022/02/14 10:11:56;;;;;;;;;;;11.50;98.00;;;10.26;91.35;98993.06;5027747;28;19998;-84
2022/02/14 10:14:24;;;;;;;;;;;11.50;98.00;;;10.27;91.13;99000.16;5036857;28;20016;-84
2022/02/14 10:17:03;;;;;;;;;;;11.50;98.10;;;10.30;90.61;98993.44;5035701;28;20385;-84
2022/02/14 10:19:31;;;;;;;;;;;11.50;97.70;;;10.26;91.21;99011.25;5022873;28;19933;-84
2022/02/14 10:21:59;;;;;;;;;;;11.50;97.70;;;10.29;91.67;99025.25;5028067;28;19972;-84
2022/02/14 10:24:26;;;;;;;;;;;11.50;98.10;;;10.41;92.13;99022.66;5035514;28;19928;-84
2022/02/14 10:26:55;;;;;;;;;;;11.60;98.60;;;10.51;90.90;99017.59;5035834;28;19929;-84
2022/02/14 10:29:25;;;;;;;;;;;11.60;97.90;;;10.57;90.72;99032.19;5026761;28;19964;-84
2022/02/14 10:31:54;;;;;;;;;;;11.70;97.70;;;10.63;90.19;99025.03;5027416;28;20401;-82
2022/02/14 10:34:24;;;;;;;;;;;11.80;97.50;;;10.68;89.81;99030.63;5026868;28;19940;-86
2022/02/14 10:36:52;;;;;;;;;;;11.80;97.10;;;10.75;89.70;99034.13;5046786;28;19924;-87
2022/02/14 10:39:22;;;;;;;;;;;11.90;97.00;;;10.72;88.63;99040.03;5037185;28;20415;-86
2022/02/14 10:41:51;;;;;;;;;;;11.90;96.10;;;10.71;89.01;99049.25;5027140;28;19929;-86
2022/02/14 10:47:08;;;;;;;;;;;12.00;96.40;;;10.84;88.93;99054.56;5010381;28;19933;-86
2022/02/14 10:49:35;;;;;;;;;;;12.00;96.30;;;10.83;89.11;99052.88;5021952;28;19929;-86
2022/02/14 10:52:04;;;;;;;;;;;12.00;96.40;;;10.87;88.39;99056.84;5002845;28;19930;-86
2022/02/14 10:54:37;;;;;;;;;;;12.00;96.10;;;10.81;88.51;99068.59;5026247;28;19933;-86
2022/02/14 10:57:05;;;;;;;;;;;12.00;95.90;;;10.81;88.18;99075.94;5047363;28;20035;-86
2022/02/14 10:59:33;;;;;;;;;;;12.00;95.70;;;10.76;87.98;99058.41;5007012;28;19934;-86
2022/02/14 11:02:01;;;;;;;;;;;12.00;95.70;;;10.71;87.73;99068.28;5039887;28;19929;-87
2022/02/14 11:04:30;;;;;;;;;;;12.00;95.50;;;10.75;88.00;99077.66;5026747;28;20028;-86
2022/02/14 11:06:59;;;;;;;;;;;12.00;95.60;;;10.78;88.04;99088.13;5054963;28;19925;-86
2022/02/14 11:09:28;;;;;;;;;;;12.00;95.60;;;10.77;87.57;99089.16;5033589;28;19937;-87
2022/02/14 11:11:56;;;;;;;;;;;12.00;95.60;;;10.78;87.16;99085.41;5039733;28;19935;-84
2022/02/14 11:14:25;;;;;;;;;;;12.00;95.50;;;10.74;87.41;99089.63;5016216;28;20336;-91
2022/02/14 11:16:54;;;;;;;;;;;12.00;95.30;;;10.73;86.24;99101.53;5028785;28;19932;-82
2022/02/14 11:19:22;;;;;;;;;;;12.00;94.50;;;10.72;85.93;99108.88;5025384;28;19930;-82
2022/02/14 11:21:51;;;;;;;;;;;11.90;94.30;;;10.78;85.92;99109.91;5010236;28;20448;-82
2022/02/14 11:24:27;;;;;;;;;;;12.00;94.30;;;10.80;84.88;99110.50;5025130;28;20015;-85
2022/02/14 11:27:00;;;;;;;;;;;12.00;93.40;;;10.83;85.39;99110.03;5021941;28;19948;-84
2022/02/14 11:29:44;;;;;;;;;;;12.00;93.70;;;10.79;84.43;99116.97;5025865;28;19949;-84
2022/02/14 11:32:25;;;;;;;;;;;12.00;93.30;;;10.74;84.24;99106.78;5032061;28;19933;-84
2022/02/14 11:35:01;;;;;;;;;;;12.00;92.50;;;10.77;83.48;99110.94;5027896;28;20309;-84
2022/02/14 11:37:51;;;;;;;;;;;12.00;92.20;;;10.83;83.84;99114.66;5033164;28;19933;-85